createdAt,value
2023-05-22T00:02:48.624Z,3.95
2023-05-22T00:05:58.952Z,4.15
2023-05-22T00:09:01.439Z,4.03
2023-05-22T00:12:04.211Z,3.33
2023-05-22T00:15:07.319Z,3.53
2023-05-22T00:18:10.104Z,3.70
2023-05-22T00:21:12.751Z,3.20
2023-05-22T00:24:15.826Z,3.70
2023-05-22T00:27:18.338Z,3.80
2023-05-22T00:30:24.042Z,3.67
2023-05-22T00:33:26.997Z,3.50
2023-05-22T00:36:29.725Z,3.17
2023-05-22T00:39:32.064Z,3.00
2023-05-22T00:42:34.749Z,3.33
2023-05-22T00:45:37.117Z,3.62
2023-05-22T00:48:40.189Z,3.62
2023-05-22T00:51:42.767Z,3.97
2023-05-22T00:54:46.006Z,4.30
2023-05-22T00:57:48.696Z,3.97
2023-05-22T01:00:51.574Z,3.60
2023-05-22T01:03:55.820Z,3.65
2023-05-22T01:07:01.833Z,4.32
2023-05-22T01:10:06.129Z,3.97
2023-05-22T01:13:40.135Z,4.62
2023-05-22T01:17:22.877Z,4.30
2023-05-22T01:20:31.725Z,4.28
2023-05-22T01:24:01.945Z,4.20
2023-05-22T01:27:37.386Z,4.20
2023-05-22T01:31:00.937Z,4.55
2023-05-22T01:34:05.133Z,4.18
2023-05-22T01:37:12.253Z,4.80
2023-05-22T01:40:15.474Z,5.22
2023-05-22T01:43:18.025Z,4.93
2023-05-22T01:46:24.038Z,5.10
2023-05-22T01:49:28.397Z,5.20
2023-05-22T01:52:46.691Z,6.53
2023-05-22T01:56:01.035Z,5.47
2023-05-22T01:59:32.033Z,5.07
2023-05-22T02:02:39.470Z,4.75
2023-05-22T02:05:46.287Z,5.20
2023-05-22T02:08:50.576Z,5.40
2023-05-22T02:11:53.688Z,5.45
2023-05-22T02:14:56.552Z,5.63
2023-05-22T02:18:03.377Z,5.43
2023-05-22T02:21:08.717Z,5.80
2023-05-22T02:24:12.096Z,5.22
2023-05-22T02:27:15.078Z,4.87
2023-05-22T02:30:17.892Z,4.97
2023-05-22T02:33:20.837Z,5.68
2023-05-22T02:36:26.325Z,4.78
2023-05-22T02:39:29.745Z,5.32
2023-05-22T02:42:32.447Z,4.95
2023-05-22T02:45:35.197Z,5.07
2023-05-22T02:48:40.774Z,4.93
2023-05-22T02:51:47.613Z,4.55
2023-05-22T02:54:50.475Z,4.68
2023-05-22T02:57:52.988Z,5.80
2023-05-22T03:00:55.785Z,4.47
2023-05-22T03:03:58.436Z,4.87
2023-05-22T03:07:01.892Z,5.15
2023-05-22T03:10:05.140Z,4.87
2023-05-22T03:13:08.864Z,4.72
2023-05-22T03:16:11.709Z,5.37
2023-05-22T03:19:17.073Z,5.37
2023-05-22T03:22:19.707Z,5.78
2023-05-22T03:25:23.128Z,5.55
2023-05-22T03:28:26.919Z,5.68
2023-05-22T03:31:31.596Z,5.80
2023-05-22T03:34:34.436Z,5.95
2023-05-22T03:37:37.579Z,5.55
2023-05-22T03:40:40.762Z,5.37
2023-05-22T03:43:45.179Z,5.93
2023-05-22T03:46:48.362Z,5.27
2023-05-22T03:49:53.596Z,5.00
2023-05-22T03:52:57.505Z,4.95
2023-05-22T03:56:00.422Z,5.10
2023-05-22T03:59:03.090Z,4.37
2023-05-22T04:02:06.035Z,4.23
2023-05-22T04:05:10.295Z,4.45
2023-05-22T04:08:13.123Z,4.80
2023-05-22T04:11:16.210Z,4.15
2023-05-22T04:14:18.791Z,4.62
2023-05-22T04:17:22.148Z,4.30
2023-05-22T04:20:24.812Z,4.22
2023-05-22T04:23:27.530Z,4.95
2023-05-22T04:26:32.153Z,4.05
2023-05-22T04:29:38.264Z,4.68
2023-05-22T04:32:41.020Z,3.93
2023-05-22T04:35:44.375Z,4.10
2023-05-22T04:38:47.734Z,3.55
2023-05-22T04:41:51.798Z,3.72
2023-05-22T04:44:58.346Z,4.40
2023-05-22T04:48:02.948Z,3.97
2023-05-22T04:51:06.806Z,3.97
2023-05-22T04:54:11.678Z,4.32
2023-05-22T04:57:15.142Z,3.60
2023-05-22T05:00:18.922Z,3.62
2023-05-22T05:03:22.860Z,3.47
2023-05-22T05:06:26.277Z,3.45
2023-05-22T05:09:28.859Z,2.87
2023-05-22T05:12:31.748Z,2.90
2023-05-22T05:15:34.288Z,2.83
2023-05-22T05:18:38.330Z,2.80
2023-05-22T05:21:41.083Z,2.83
2023-05-22T05:24:43.825Z,3.05
2023-05-22T05:27:46.680Z,2.75
2023-05-22T05:30:50.137Z,3.12
2023-05-22T05:33:53.089Z,2.80
2023-05-22T05:36:57.414Z,3.12
2023-05-22T05:40:01.017Z,2.90
2023-05-22T05:43:10.106Z,3.33
2023-05-22T05:46:14.989Z,3.40
2023-05-22T05:49:19.798Z,3.30
2023-05-22T05:52:22.551Z,3.20
2023-05-22T05:55:25.605Z,3.30
2023-05-22T05:58:37.965Z,3.25
2023-05-22T06:01:45.969Z,2.92
2023-05-22T06:04:49.304Z,3.13
2023-05-22T06:07:53.051Z,3.03
2023-05-22T06:10:56.146Z,3.33
2023-05-22T06:14:03.336Z,3.30
2023-05-22T06:17:09.232Z,2.60
2023-05-22T06:20:14.314Z,2.80
2023-05-22T06:23:18.048Z,3.03
2023-05-22T06:26:24.541Z,3.47
2023-05-22T06:29:27.524Z,3.22
2023-05-22T06:32:31.543Z,3.37
2023-05-22T06:35:36.812Z,3.40
2023-05-22T06:38:40.931Z,2.97
2023-05-22T06:41:47.864Z,3.33
2023-05-22T06:44:51.973Z,3.75
2023-05-22T06:47:55.660Z,3.60
2023-05-22T06:50:58.403Z,3.07
2023-05-22T06:54:07.427Z,3.62
2023-05-22T06:57:11.300Z,3.97
2023-05-22T07:00:14.851Z,3.20
2023-05-22T07:03:19.985Z,3.60
2023-05-22T07:06:24.774Z,3.20
2023-05-22T07:09:27.385Z,3.97
2023-05-22T07:12:31.345Z,4.22
2023-05-22T07:15:34.404Z,3.50
2023-05-22T07:18:38.442Z,3.95
2023-05-22T07:21:41.705Z,4.13
2023-05-22T07:24:47.599Z,4.90
2023-05-22T07:27:51.092Z,6.20
2023-05-22T07:30:54.319Z,4.25
2023-05-22T07:33:56.876Z,3.75
2023-05-22T07:37:02.654Z,3.77
2023-05-22T07:40:10.002Z,4.03
2023-05-22T07:43:15.425Z,3.83
2023-05-22T07:46:18.113Z,3.60
2023-05-22T07:49:23.470Z,4.15
2023-05-22T07:52:26.072Z,4.37
2023-05-22T07:55:28.855Z,3.58
2023-05-22T07:58:31.586Z,4.10
2023-05-22T08:01:37.552Z,4.30
2023-05-22T08:04:40.824Z,3.92
2023-05-22T08:07:43.367Z,7.10
2023-05-22T08:11:02.566Z,4.07
2023-05-22T08:14:06.598Z,3.90
2023-05-22T08:17:09.576Z,3.95
2023-05-22T08:20:13.286Z,3.65
2023-05-22T08:23:16.182Z,3.83
2023-05-22T08:26:18.640Z,3.65
2023-05-22T08:29:21.456Z,4.35
2023-05-22T08:32:23.953Z,5.12
2023-05-22T08:35:27.063Z,4.25
2023-05-22T08:38:29.713Z,4.60
2023-05-22T08:41:32.631Z,8.45
2023-05-22T08:44:40.771Z,4.40
2023-05-22T08:47:44.655Z,3.10
2023-05-22T08:50:49.770Z,27.00
2023-05-22T08:53:56.606Z,20.53
2023-05-22T08:56:59.307Z,3.40
2023-05-22T09:00:02.225Z,2.83
2023-05-22T09:03:06.888Z,2.75
2023-05-22T09:06:11.212Z,4.87
2023-05-22T09:09:16.134Z,3.13
2023-05-22T09:12:21.641Z,3.00
2023-05-22T09:15:30.279Z,2.83
2023-05-22T09:18:33.202Z,3.28
2023-05-22T09:21:37.655Z,3.10
2023-05-22T09:24:45.106Z,2.87
2023-05-22T09:27:49.512Z,3.00
2023-05-22T09:30:54.000Z,2.87
2023-05-22T09:33:56.782Z,2.78
2023-05-22T09:37:03.461Z,3.15
2023-05-22T09:40:07.975Z,2.80
2023-05-22T09:43:11.595Z,5.60
2023-05-22T09:46:16.639Z,3.05
2023-05-22T09:49:19.449Z,2.95
2023-05-22T09:52:22.995Z,3.97
2023-05-22T09:55:27.400Z,3.90
2023-05-22T09:58:33.696Z,3.08
2023-05-22T10:01:39.051Z,3.65
2023-05-22T10:04:42.596Z,3.33
2023-05-22T10:07:53.467Z,3.22
2023-05-22T10:10:59.995Z,3.10
2023-05-22T10:14:05.170Z,3.00
2023-05-22T10:17:11.444Z,3.22
2023-05-22T10:20:15.347Z,3.30
2023-05-22T10:23:19.141Z,3.00
2023-05-22T10:26:23.219Z,3.23
2023-05-22T10:29:33.841Z,3.25
2023-05-22T10:32:44.104Z,3.35
2023-05-22T10:35:53.394Z,3.22
2023-05-22T10:38:55.867Z,3.12
2023-05-22T10:41:58.853Z,3.40
2023-05-22T10:45:01.950Z,3.40
2023-05-22T10:48:11.871Z,3.58
2023-05-22T10:51:20.439Z,3.83
2023-05-22T10:54:59.953Z,3.62
2023-05-22T10:58:13.260Z,3.37
2023-05-22T11:01:17.523Z,3.47
2023-05-22T11:04:25.820Z,3.55
2023-05-22T11:07:42.412Z,3.42
2023-05-22T11:10:56.300Z,3.45
2023-05-22T11:14:05.216Z,3.33
2023-05-22T11:17:08.024Z,3.28
2023-05-22T11:20:21.164Z,3.55
2023-05-22T11:23:25.686Z,3.28
2023-05-22T11:26:28.500Z,3.60
2023-05-22T11:29:33.597Z,3.33
2023-05-22T11:32:37.861Z,3.42
2023-05-22T11:35:41.370Z,3.70
2023-05-22T11:38:44.491Z,3.80
2023-05-22T11:41:50.002Z,3.92
2023-05-22T11:44:52.921Z,3.53
2023-05-22T11:47:55.907Z,3.40
2023-05-22T11:50:59.176Z,3.33
2023-05-22T11:54:01.750Z,3.37
2023-05-22T11:57:09.210Z,3.75
2023-05-22T12:00:12.271Z,3.60
2023-05-22T12:03:14.622Z,3.45
2023-05-22T12:06:18.286Z,3.78
2023-05-22T12:09:20.767Z,3.20
2023-05-22T12:12:23.935Z,3.12
2023-05-22T12:15:27.066Z,3.07
2023-05-22T12:18:37.568Z,3.03
2023-05-22T12:21:44.985Z,3.50
2023-05-22T12:24:52.603Z,3.58
2023-05-22T12:27:55.397Z,3.08
2023-05-22T12:30:58.049Z,3.10
2023-05-22T12:34:04.412Z,3.20
2023-05-22T12:37:30.032Z,3.05
2023-05-22T12:40:32.508Z,3.10
2023-05-22T12:43:35.732Z,3.47
2023-05-22T12:46:38.546Z,3.20
2023-05-22T12:49:41.377Z,3.53
2023-05-22T12:52:43.840Z,3.70
2023-05-22T12:55:46.707Z,3.20
2023-05-22T12:58:52.202Z,3.20
2023-05-22T13:02:02.349Z,2.93
2023-05-22T13:05:08.510Z,3.35
2023-05-22T13:08:11.522Z,3.40
2023-05-22T13:11:14.300Z,3.50
2023-05-22T13:14:17.577Z,3.28
2023-05-22T13:17:20.087Z,2.97
2023-05-22T13:20:25.449Z,3.33
2023-05-22T13:23:27.971Z,3.60
2023-05-22T13:26:30.811Z,3.10
2023-05-22T13:29:34.785Z,3.17
2023-05-22T13:32:37.858Z,2.90
2023-05-22T13:35:40.643Z,3.00
2023-05-22T13:38:43.596Z,3.50
2023-05-22T13:41:46.540Z,3.20
2023-05-22T13:44:49.793Z,3.00
2023-05-22T13:47:52.373Z,3.10
2023-05-22T13:51:03.410Z,3.12
2023-05-22T13:54:06.104Z,3.17
2023-05-22T13:57:09.010Z,3.28
2023-05-22T14:00:17.025Z,2.95
2023-05-22T14:03:20.451Z,3.23
2023-05-22T14:06:23.563Z,3.15
2023-05-22T14:09:26.558Z,3.53
2023-05-22T14:12:29.204Z,2.90
2023-05-22T14:15:32.477Z,3.22
2023-05-22T14:18:40.360Z,3.13
2023-05-22T14:21:43.002Z,3.37
2023-05-22T14:24:45.461Z,2.87
2023-05-22T14:27:48.139Z,3.72
2023-05-22T14:30:50.652Z,3.60
2023-05-22T14:33:53.335Z,3.03
2023-05-22T14:36:58.598Z,2.97
2023-05-22T14:40:04.335Z,3.22
2023-05-22T14:43:11.594Z,3.70
2023-05-22T14:46:14.791Z,3.72
2023-05-22T14:49:20.511Z,3.10
2023-05-22T14:52:26.416Z,3.40
2023-05-22T14:55:31.884Z,3.40
2023-05-22T14:58:34.798Z,3.35
2023-05-22T15:01:38.849Z,3.10
2023-05-22T15:04:42.104Z,3.10
2023-05-22T15:07:46.708Z,3.12
2023-05-22T15:10:50.881Z,3.20
2023-05-22T15:13:56.404Z,3.08
2023-05-22T15:17:00.001Z,3.35
2023-05-22T15:20:02.443Z,3.37
2023-05-22T15:23:05.755Z,3.08
2023-05-22T15:26:08.271Z,3.50
2023-05-22T15:29:11.045Z,3.30
2023-05-22T15:32:16.395Z,3.42
2023-05-22T15:35:19.537Z,2.77
2023-05-22T15:38:22.077Z,3.33
2023-05-22T15:41:25.995Z,3.35
2023-05-22T15:44:28.703Z,3.47
2023-05-22T15:47:31.718Z,3.50
2023-05-22T15:50:34.722Z,3.20
2023-05-22T15:53:41.150Z,3.40
2023-05-22T15:56:44.178Z,3.30
2023-05-22T15:59:50.805Z,3.90
2023-05-22T16:02:53.781Z,3.62
2023-05-22T16:05:56.734Z,3.20
2023-05-22T16:08:59.248Z,3.50
2023-05-22T16:12:02.996Z,3.10
2023-05-22T16:15:06.828Z,3.53
2023-05-22T16:18:12.422Z,3.33
2023-05-22T16:21:14.820Z,3.20
2023-05-22T16:24:17.615Z,3.55
2023-05-22T16:27:20.187Z,3.25
2023-05-22T16:30:23.424Z,3.65
2023-05-22T16:33:25.991Z,3.40
2023-05-22T16:36:29.050Z,3.30
2023-05-22T16:39:31.619Z,3.30
2023-05-22T16:42:35.413Z,3.30
2023-05-22T16:45:46.575Z,3.05
2023-05-22T16:48:52.177Z,2.87
2023-05-22T16:51:54.550Z,2.80
2023-05-22T16:54:57.227Z,2.85
2023-05-22T16:58:00.181Z,2.80
2023-05-22T17:01:03.019Z,2.90
2023-05-22T17:04:05.716Z,3.05
2023-05-22T17:07:08.539Z,3.10
2023-05-22T17:10:11.586Z,3.10
2023-05-22T17:13:20.914Z,3.42
2023-05-22T17:16:23.477Z,3.22
2023-05-22T17:19:26.667Z,3.17
2023-05-22T17:22:29.088Z,3.13
2023-05-22T17:25:32.046Z,3.30
2023-05-22T17:28:34.728Z,3.42
2023-05-22T17:31:39.290Z,2.70
2023-05-22T17:34:42.110Z,2.75
2023-05-22T17:37:44.850Z,3.87
2023-05-22T17:40:47.683Z,3.30
2023-05-22T17:44:00.171Z,3.30
2023-05-22T17:47:04.070Z,3.12
2023-05-22T17:50:07.380Z,3.20
2023-05-22T17:53:09.703Z,3.07
2023-05-22T17:56:12.394Z,3.25
2023-05-22T17:59:14.783Z,3.30
2023-05-22T18:02:17.978Z,3.28
2023-05-22T18:05:20.901Z,3.75
2023-05-22T18:08:23.409Z,3.40
2023-05-22T18:11:26.274Z,4.18
2023-05-22T18:14:28.916Z,3.30
2023-05-22T18:17:32.636Z,3.47
2023-05-22T18:20:38.276Z,3.17
2023-05-22T18:23:40.973Z,3.20
2023-05-22T18:26:46.500Z,3.30
2023-05-22T18:29:52.397Z,2.95
2023-05-22T18:32:54.775Z,3.10
2023-05-22T18:35:57.838Z,3.28
2023-05-22T18:39:00.272Z,2.90
2023-05-22T18:42:02.939Z,3.22
2023-05-22T18:45:07.203Z,3.12
2023-05-22T18:48:09.953Z,3.00
2023-05-22T18:51:13.420Z,3.25
2023-05-22T18:54:16.150Z,3.23
2023-05-22T18:57:18.622Z,3.08
2023-05-22T19:00:23.766Z,3.58
2023-05-22T19:03:26.944Z,3.30
2023-05-22T19:06:30.575Z,3.40
2023-05-22T19:09:32.948Z,3.30
2023-05-22T19:12:35.733Z,3.10
2023-05-22T19:15:38.557Z,3.75
2023-05-22T19:18:41.556Z,3.80
2023-05-22T19:21:43.917Z,3.62
2023-05-22T19:24:46.679Z,3.40
2023-05-22T19:27:49.269Z,3.40
2023-05-22T19:30:53.273Z,4.87
2023-05-22T19:33:55.985Z,3.83
2023-05-22T19:36:58.739Z,3.72
2023-05-22T19:40:01.282Z,3.60
2023-05-22T19:43:05.056Z,3.80
2023-05-22T19:46:09.009Z,3.62
2023-05-22T19:49:11.996Z,3.70
2023-05-22T19:52:14.377Z,3.78
2023-05-22T19:55:17.032Z,3.57
2023-05-22T19:58:19.905Z,3.80
2023-05-22T20:01:23.110Z,3.90
2023-05-22T20:04:26.106Z,4.43
2023-05-22T20:07:28.975Z,4.25
2023-05-22T20:10:33.327Z,4.10
2023-05-22T20:13:35.963Z,3.87
2023-05-22T20:16:41.890Z,4.60
2023-05-22T20:19:45.281Z,4.30
2023-05-22T20:22:48.951Z,3.97
2023-05-22T20:25:51.591Z,4.77
2023-05-22T20:28:54.254Z,4.57
2023-05-22T20:31:56.823Z,4.80
2023-05-22T20:35:01.944Z,4.60
2023-05-22T20:38:04.309Z,4.37
2023-05-22T20:41:09.177Z,4.43
2023-05-22T20:44:12.340Z,4.68
2023-05-22T20:47:15.304Z,4.50
2023-05-22T20:50:17.710Z,4.93
2023-05-22T20:53:20.391Z,5.12
2023-05-22T20:56:22.889Z,5.20
2023-05-22T20:59:25.806Z,4.62
2023-05-22T21:02:28.250Z,4.60
2023-05-22T21:05:31.006Z,5.25
2023-05-22T21:08:33.341Z,5.25
2023-05-22T21:11:36.089Z,4.63
2023-05-22T21:14:38.494Z,4.90
2023-05-22T21:17:41.226Z,5.00
2023-05-22T21:20:43.728Z,4.87
2023-05-22T21:23:48.035Z,4.82
2023-05-22T21:26:50.377Z,4.77
2023-05-22T21:29:53.902Z,4.53
2023-05-22T21:32:56.460Z,5.22
2023-05-22T21:35:59.516Z,5.03
2023-05-22T21:39:02.497Z,4.80
2023-05-22T21:42:06.008Z,5.03
2023-05-22T21:45:08.899Z,5.40
2023-05-22T21:48:11.699Z,6.05
2023-05-22T21:51:14.969Z,5.82
2023-05-22T21:54:17.620Z,5.97
2023-05-22T21:57:20.443Z,6.17
2023-05-22T22:00:23.118Z,6.10
2023-05-22T22:03:25.947Z,6.50
2023-05-22T22:06:31.353Z,6.20
2023-05-22T22:09:34.284Z,6.07
2023-05-22T22:12:36.798Z,5.90
2023-05-22T22:15:40.004Z,6.57
2023-05-22T22:18:43.874Z,6.28
2023-05-22T22:21:46.781Z,6.72
2023-05-22T22:24:49.228Z,6.65
2023-05-22T22:27:52.720Z,6.63
2023-05-22T22:30:55.337Z,8.00
2023-05-22T22:33:58.168Z,6.87
2023-05-22T22:37:01.632Z,6.80
2023-05-22T22:40:08.115Z,6.87
2023-05-22T22:43:10.514Z,7.17
2023-05-22T22:46:13.795Z,7.82
2023-05-22T22:49:16.194Z,8.02
2023-05-22T22:52:18.905Z,7.80
2023-05-22T22:55:21.575Z,8.45
2023-05-22T22:58:24.778Z,7.23
2023-05-22T23:01:27.245Z,7.62
2023-05-22T23:04:32.077Z,8.45
2023-05-22T23:07:34.792Z,8.13
2023-05-22T23:10:37.525Z,7.95
2023-05-22T23:13:41.310Z,7.70
2023-05-22T23:16:46.341Z,8.75
2023-05-22T23:19:48.762Z,7.25
2023-05-22T23:22:51.487Z,8.13
2023-05-22T23:25:53.873Z,7.43
2023-05-22T23:28:56.587Z,7.27
2023-05-22T23:31:59.252Z,6.75
2023-05-22T23:35:02.074Z,6.85
2023-05-22T23:38:06.958Z,6.30
2023-05-22T23:41:10.497Z,6.25
2023-05-22T23:44:12.958Z,5.70
2023-05-22T23:47:16.934Z,5.65
2023-05-22T23:50:19.621Z,6.07
2023-05-22T23:53:22.286Z,5.22
2023-05-22T23:56:24.707Z,5.55
2023-05-22T23:59:27.352Z,5.93
